Time;durP1;ratioP1;P1;durP2;ratioP2;P2;SDS_P1;SDS_P2;PMS_P1;PMS_P2;Temp;Humidity;BMP_temperature;BMP_pressure;BME280_temperature;BME280_humidity;BME280_pressure;Samples;Min_cycle;Max_cycle;Signal;HPM_P1;HPM_P2
2022/02/04 00:01:09;;;;;;;31.00;15.10;;;;;;;1.47;84.93;100213.11;88136;1274;81775;-62
2022/02/04 00:07:40;;;;;;;32.00;15.90;;;;;;;1.72;84.54;100201.59;88011;1274;82808;-69
2022/02/04 00:20:02;;;;;;;36.30;17.30;;;;;;;1.71;84.59;100203.13;88182;1274;98311;-68
2022/02/04 00:22:47;;;;;;;29.90;15.50;;;;;;;1.73;84.79;100207.70;87978;1279;98491;-69
2022/02/04 00:25:00;;;;;;;30.40;15.90;;;;;;;1.77;84.83;100208.73;87965;1279;87970;-69
2022/02/04 00:27:15;;;;;;;34.50;16.80;;;;;;;1.83;84.81;100208.60;87981;1279;93097;-69
2022/02/04 00:29:29;;;;;;;35.10;16.20;;;;;;;1.81;84.74;100206.79;87964;1279;77494;-69
2022/02/04 00:31:42;;;;;;;34.80;16.80;;;;;;;1.82;85.05;100202.13;87998;1277;83726;-63
2022/02/04 00:33:56;;;;;;;31.30;16.70;;;;;;;1.91;84.80;100192.96;88034;1277;99280;-63
2022/02/04 00:36:13;;;;;;;39.90;19.00;;;;;;;1.87;84.88;100195.06;88025;1277;88591;-63
2022/02/04 00:38:28;;;;;;;31.30;16.60;;;;;;;1.85;84.70;100198.98;88007;1278;96098;-62
2022/02/04 00:40:42;;;;;;;34.00;16.80;;;;;;;1.85;84.63;100197.27;88003;1277;80750;-71
2022/02/04 00:42:54;;;;;;;31.30;15.40;;;;;;;1.81;84.78;100198.45;88034;1277;83465;-69
2022/02/04 00:45:16;;;;;;;30.80;15.60;;;;;;;1.83;84.83;100199.69;88033;1277;98976;-70
2022/02/04 00:47:28;;;;;;;32.10;15.90;;;;;;;1.82;84.88;100192.69;88153;1274;89014;-62
2022/02/04 00:49:51;;;;;;;29.10;15.40;;;;;;;1.84;84.77;100190.97;88175;1274;95154;-65
2022/02/04 00:52:09;;;;;;;31.20;15.40;;;;;;;1.88;84.86;100186.85;88084;1277;81484;-71
2022/02/04 00:54:26;;;;;;;33.20;15.80;;;;;;;1.91;84.93;100185.85;88189;1274;81059;-69
2022/02/04 00:56:44;;;;;;;26.60;16.00;;;;;;;1.98;85.06;100180.02;88162;1274;98709;-64
2022/02/04 01:26:16;;;;;;;33.90;16.50;;;;;;;2.02;85.42;100150.74;87961;1279;95122;-68
2022/02/04 01:28:26;;;;;;;32.10;16.60;;;;;;;1.97;85.29;100147.82;87982;1279;80390;-69
2022/02/04 01:30:36;;;;;;;30.90;16.70;;;;;;;2.00;85.56;100143.42;87975;1279;83700;-64
2022/02/04 01:32:45;;;;;;;33.30;17.30;;;;;;;2.02;85.68;100141.02;88076;1273;98973;-66
2022/02/04 01:34:54;;;;;;;34.80;17.90;;;;;;;2.02;85.64;100137.23;88175;1274;88295;-65
2022/02/04 01:37:04;;;;;;;32.80;17.40;;;;;;;2.00;85.67;100139.52;88120;1276;95987;-69
2022/02/04 01:39:12;;;;;;;38.40;18.10;;;;;;;1.98;85.72;100139.20;88197;1273;78542;-65
2022/02/04 01:41:21;;;;;;;35.20;17.80;;;;;;;1.98;85.68;100135.69;88208;1273;83593;-65
2022/02/04 01:43:30;;;;;;;33.70;17.40;;;;;;;1.96;85.66;100134.98;88172;1274;98556;-65
2022/02/04 01:45:39;;;;;;;30.80;16.40;;;;;;;1.96;85.69;100137.12;88209;1273;89599;-66
2022/02/04 01:47:55;;;;;;;32.50;17.30;;;;;;;1.97;85.56;100134.65;88195;1273;94359;-66
2022/02/04 01:50:05;;;;;;;35.70;19.00;;;;;;;1.97;85.67;100133.23;88198;1273;78914;-67
2022/02/04 01:52:15;;;;;;;29.50;16.30;;;;;;;1.99;85.66;100131.61;88232;1273;80927;-66
2022/02/04 01:54:25;;;;;;;30.60;17.70;;;;;;;1.99;85.69;100132.20;88213;1273;98796;-66
2022/02/04 01:56:37;;;;;;;34.90;16.10;;;;;;;2.03;85.71;100131.98;88163;1274;87256;-65
2022/02/04 01:58:46;;;;;;;31.00;15.70;;;;;;;2.07;85.66;100130.16;88198;1273;95637;-65
2022/02/04 02:00:58;;;;;;;33.30;17.40;;;;;;;2.13;85.83;100122.89;88210;1273;78958;-64
2022/02/04 02:03:09;;;;;;;29.60;16.70;;;;;;;2.09;85.84;100119.55;88229;1273;81375;-64
2022/02/04 02:05:19;;;;;;;35.90;17.70;;;;;;;2.07;85.92;100120.62;88216;1273;99422;-64
2022/02/04 02:07:39;;;;;;;31.60;17.40;;;;;;;2.04;86.12;100117.85;88199;1274;88515;-67
2022/02/04 02:09:56;;;;;;;36.30;17.50;;;;;;;2.03;86.02;100106.27;88211;1273;93835;-67
2022/02/04 02:12:08;;;;;;;32.60;16.80;;;;;;;1.99;86.01;100110.40;88172;1274;79342;-65
2022/02/04 02:14:19;;;;;;;29.20;16.90;;;;;;;1.99;85.98;100104.84;88220;1273;81531;-65
2022/02/04 02:16:55;;;;;;;32.90;16.60;;;;;;;1.94;86.16;100106.59;88179;1274;98031;-69
2022/02/04 02:46:26;;;;;;;30.20;16.90;;;;;;;2.16;86.60;100095.80;88079;1274;93666;-66
2022/02/04 02:48:55;;;;;;;32.50;17.10;;;;;;;2.12;86.75;100090.98;88150;1274;78610;-66
2022/02/04 02:54:06;;;;;;;28.30;15.50;;;;;;;2.18;86.74;100087.79;88163;1274;98931;-70
2022/02/04 02:58:51;;;;;;;28.60;14.90;;;;;;;2.21;86.94;100089.47;88160;1274;94840;-66
2022/02/04 03:01:05;;;;;;;29.70;15.50;;;;;;;2.25;86.91;100088.50;88155;1274;79328;-70
2022/02/04 03:03:17;;;;;;;29.90;15.40;;;;;;;2.28;86.89;100088.23;88165;1274;81434;-71
2022/02/04 03:05:26;;;;;;;29.00;16.00;;;;;;;2.27;86.99;100088.42;88187;1274;98191;-71
2022/02/04 03:07:35;;;;;;;30.10;16.40;;;;;;;2.29;87.00;100088.80;88164;1274;87888;-71
2022/02/04 03:09:46;;;;;;;27.50;15.40;;;;;;;2.30;86.94;100086.76;88184;1274;95498;-70
2022/02/04 03:11:55;;;;;;;28.90;16.30;;;;;;;2.33;86.98;100085.13;88176;1274;78438;-69
2022/02/04 03:14:08;;;;;;;30.50;15.70;;;;;;;2.33;86.85;100089.22;88198;1274;81547;-69
2022/02/04 03:16:18;;;;;;;28.00;16.00;;;;;;;2.29;86.99;100089.00;88142;1274;99260;-68
2022/02/04 03:18:30;;;;;;;29.50;15.60;;;;;;;2.22;87.22;100086.69;88161;1274;88821;-72
2022/02/04 03:20:46;;;;;;;25.60;14.50;;;;;;;2.22;87.18;100083.27;88164;1274;93617;-65
2022/02/04 03:22:59;;;;;;;28.70;14.50;;;;;;;2.24;87.36;100077.73;88162;1274;80949;-66
2022/02/04 03:25:13;;;;;;;24.70;13.60;;;;;;;2.31;87.28;100080.27;88182;1274;82983;-66
2022/02/04 03:27:33;;;;;;;29.10;14.50;;;;;;;2.37;87.34;100078.81;88194;1274;98401;-69
2022/02/04 03:30:01;;;;;;;25.90;13.90;;;;;;;2.42;87.27;100072.48;88161;1274;89365;-65
2022/02/04 03:32:16;;;;;;;29.40;14.00;;;;;;;2.45;87.22;100072.53;88160;1274;95766;-70
2022/02/04 03:34:25;;;;;;;26.60;14.30;;;;;;;2.52;87.21;100077.77;88174;1274;79008;-70
2022/02/04 03:36:37;;;;;;;29.10;16.20;;;;;;;2.50;87.33;100079.23;88199;1274;82418;-66
2022/02/04 03:38:46;;;;;;;33.30;15.00;;;;;;;2.52;87.50;100079.42;88174;1274;99561;-66
2022/02/04 03:40:56;;;;;;;26.30;16.10;;;;;;;2.57;87.45;100077.83;88198;1274;88992;-70
2022/02/04 03:43:05;;;;;;;36.60;15.50;;;;;;;2.60;87.51;100076.25;88205;1274;94975;-70
2022/02/04 03:45:15;;;;;;;28.70;14.40;;;;;;;2.60;87.43;100076.30;88183;1274;77090;-70
2022/02/04 03:47:23;;;;;;;26.80;13.90;;;;;;;2.58;87.47;100080.58;88198;1274;81595;-71
2022/02/04 03:49:33;;;;;;;27.70;14.90;;;;;;;2.54;87.52;100077.35;88203;1274;99001;-70
2022/02/04 03:51:42;;;;;;;28.30;14.80;;;;;;;2.48;87.54;100079.20;88207;1274;89179;-70
2022/02/04 03:53:55;;;;;;;28.20;14.60;;;;;;;2.52;87.58;100080.77;88138;1276;95221;-69
2022/02/04 03:56:05;;;;;;;30.50;14.30;;;;;;;2.54;87.41;100079.85;88185;1274;80928;-68
2022/02/04 03:58:14;;;;;;;27.60;14.50;;;;;;;2.50;87.71;100078.63;88160;1276;80737;-69
2022/02/04 04:00:26;;;;;;;26.30;15.20;;;;;;;2.48;87.74;100073.68;87867;1276;366048;-68
2022/02/04 04:02:36;;;;;;;26.00;13.40;;;;;;;2.50;87.73;100078.02;88075;1278;87846;-65
2022/02/04 04:04:45;;;;;;;25.30;14.60;;;;;;;2.57;87.78;100076.37;88140;1275;91775;-65
2022/02/04 04:06:54;;;;;;;27.30;13.60;;;;;;;2.64;87.70;100074.52;88173;1274;79010;-65
2022/02/04 04:09:03;;;;;;;24.80;14.20;;;;;;;2.70;87.67;100074.60;88172;1274;80654;-65
2022/02/04 04:11:14;;;;;;;27.20;13.30;;;;;;;2.73;87.67;100069.34;88176;1274;98689;-69
2022/02/04 04:13:23;;;;;;;25.80;14.10;;;;;;;2.71;87.57;100071.61;88168;1274;87185;-70
2022/02/04 04:15:32;;;;;;;25.30;13.90;;;;;;;2.74;87.75;100069.16;88175;1274;95119;-66
2022/02/04 04:17:43;;;;;;;27.10;15.10;;;;;;;2.73;87.97;100068.10;88208;1274;77230;-65
2022/02/04 04:19:52;;;;;;;24.60;14.70;;;;;;;2.72;87.88;100068.36;88182;1274;82317;-65
2022/02/04 04:22:01;;;;;;;27.70;15.50;;;;;;;2.71;87.75;100070.17;88198;1274;99114;-69
2022/02/04 04:24:11;;;;;;;24.60;13.80;;;;;;;2.73;87.67;100067.48;88173;1274;88428;-70
2022/02/04 04:26:20;;;;;;;28.20;15.30;;;;;;;2.72;87.81;100068.14;88168;1274;94833;-66
2022/02/04 04:28:29;;;;;;;23.90;14.10;;;;;;;2.75;87.72;100065.25;88143;1274;79612;-65
2022/02/04 04:30:42;;;;;;;26.10;14.00;;;;;;;2.77;87.67;100064.83;88165;1274;81643;-69
2022/02/04 04:32:53;;;;;;;20.30;11.40;;;;;;;2.80;87.95;100062.00;88170;1274;98822;-70
2022/02/04 04:35:02;;;;;;;25.10;13.60;;;;;;;2.76;88.00;100060.15;88150;1274;89497;-69
2022/02/04 04:37:11;;;;;;;19.90;13.30;;;;;;;2.73;88.07;100059.71;88091;1276;95819;-70
2022/02/04 04:39:25;;;;;;;23.10;13.30;;;;;;;2.82;88.04;100060.20;88151;1276;78459;-69
2022/02/04 04:41:47;;;;;;;20.60;12.90;;;;;;;2.87;87.87;100061.41;88206;1276;81309;-69
2022/02/04 05:28:35;;;;;;;21.80;15.40;;;;;;;3.00;87.96;100031.81;88137;1276;80156;-63
2022/02/04 05:30:47;;;;;;;23.00;14.80;;;;;;;2.99;88.23;100034.93;88158;1276;82290;-63
2022/02/04 05:33:00;;;;;;;21.70;15.00;;;;;;;2.99;88.08;100030.87;88175;1276;96992;-63
2022/02/04 05:35:11;;;;;;;23.20;14.70;;;;;;;3.03;88.25;100028.69;88179;1276;87937;-62
2022/02/04 05:37:22;;;;;;;25.00;14.80;;;;;;;3.05;88.34;100032.56;88193;1276;93126;-63
2022/02/04 05:39:37;;;;;;;24.40;15.30;;;;;;;3.11;88.32;100030.04;88149;1276;79568;-62
2022/02/04 05:41:49;;;;;;;22.30;14.30;;;;;;;3.18;88.40;100027.39;88157;1276;82306;-62
2022/02/04 05:44:04;;;;;;;23.80;14.40;;;;;;;3.15;88.59;100026.92;88190;1274;98911;-62
2022/02/04 05:46:17;;;;;;;23.60;14.90;;;;;;;3.19;88.34;100031.94;88156;1274;88916;-70
2022/02/04 05:48:32;;;;;;;25.70;14.70;;;;;;;3.19;88.21;100032.10;88174;1276;94917;-69
2022/02/04 05:50:52;;;;;;;23.10;15.80;;;;;;;3.20;88.33;100028.73;88167;1274;78697;-68
2022/02/04 05:53:15;;;;;;;23.80;15.10;;;;;;;3.24;88.32;100024.33;88215;1274;82807;-69
2022/02/04 05:58:13;;;;;;;26.00;16.40;;;;;;;3.19;88.21;100025.27;88146;1274;86925;-62
2022/02/04 06:00:31;;;;;;;26.60;16.50;;;;;;;3.19;88.27;100027.42;88195;1274;95790;-64
2022/02/04 06:02:50;;;;;;;24.40;15.40;;;;;;;3.20;88.22;100030.56;88155;1274;79281;-68
2022/02/04 06:05:07;;;;;;;23.70;15.80;;;;;;;3.18;88.32;100032.30;88189;1275;79733;-69
2022/02/04 06:07:34;;;;;;;25.50;15.80;;;;;;;3.18;88.34;100033.73;88188;1276;97473;-62
2022/02/04 06:14:49;;;;;;;24.20;15.10;;;;;;;3.26;88.51;100042.77;88072;1276;81805;-70
2022/02/04 06:22:19;;;;;;;23.20;15.60;;;;;;;3.31;88.50;100048.45;88201;1274;86458;-70
2022/02/04 06:24:29;;;;;;;25.50;16.00;;;;;;;3.33;88.46;100050.64;88191;1275;95567;-69
2022/02/04 06:26:39;;;;;;;25.30;17.30;;;;;;;3.34;88.45;100046.58;88220;1275;77181;-69
2022/02/04 06:28:49;;;;;;;27.50;16.60;;;;;;;3.33;88.29;100051.88;88218;1274;81855;-69
2022/02/04 06:30:57;;;;;;;24.80;16.20;;;;;;;3.32;88.38;100056.40;88201;1274;99243;-69
2022/02/04 06:33:10;;;;;;;23.40;15.20;;;;;;;3.28;88.36;100058.04;88174;1274;89212;-69
2022/02/04 06:35:19;;;;;;;26.20;16.20;;;;;;;3.27;88.44;100055.43;88188;1275;94563;-71
2022/02/04 06:37:29;;;;;;;25.70;15.70;;;;;;;3.28;88.32;100058.54;88154;1276;81310;-69
2022/02/04 06:39:38;;;;;;;25.50;16.40;;;;;;;3.29;88.35;100062.55;88177;1276;80569;-69
2022/02/04 06:41:47;;;;;;;23.80;14.80;;;;;;;3.32;88.48;100061.39;88158;1276;98956;-71
2022/02/04 06:43:56;;;;;;;22.10;15.00;;;;;;;3.34;88.42;100054.59;88145;1276;88252;-69
2022/02/04 06:46:05;;;;;;;22.10;15.00;;;;;;;3.38;88.50;100049.89;88168;1276;94477;-64
2022/02/04 06:48:15;;;;;;;23.60;15.30;;;;;;;3.43;88.42;100047.95;88191;1275;78651;-66
2022/02/04 06:50:27;;;;;;;25.80;15.80;;;;;;;3.50;88.43;100045.64;88216;1274;81345;-67
2022/02/04 06:52:36;;;;;;;28.50;17.10;;;;;;;3.47;88.50;100040.95;88161;1276;98859;-64
2022/02/04 06:54:46;;;;;;;25.20;16.50;;;;;;;3.39;88.43;100038.55;88188;1276;89372;-64
2022/02/04 06:56:55;;;;;;;26.80;16.30;;;;;;;3.37;88.46;100040.27;88184;1275;94125;-64
2022/02/04 06:59:06;;;;;;;26.90;16.70;;;;;;;3.42;88.53;100034.16;88185;1275;81888;-64
2022/02/04 07:01:17;;;;;;;28.70;16.70;;;;;;;3.45;88.43;100033.02;88162;1276;83049;-68
2022/02/04 07:03:26;;;;;;;26.10;16.10;;;;;;;3.44;88.48;100029.73;88177;1276;97412;-70
2022/02/04 07:05:41;;;;;;;25.50;15.40;;;;;;;3.47;88.64;100029.45;88169;1276;87290;-68
2022/02/04 07:08:03;;;;;;;26.20;16.80;;;;;;;3.51;88.74;100028.48;88190;1275;95812;-71
2022/02/04 07:10:18;;;;;;;26.10;15.70;;;;;;;3.47;88.75;100026.23;88163;1274;82388;-70
2022/02/04 07:12:33;;;;;;;25.30;15.70;;;;;;;3.44;88.66;100029.92;88178;1274;80448;-71
2022/02/04 07:14:47;;;;;;;25.50;16.20;;;;;;;3.50;88.83;100034.79;88177;1274;99630;-71
2022/02/04 07:17:08;;;;;;;26.60;16.40;;;;;;;3.61;88.88;100038.89;88076;1276;88879;-70
2022/02/04 07:21:46;;;;;;;28.90;17.40;;;;;;;3.60;88.79;100041.09;88165;1276;79108;-70
2022/02/04 07:23:55;;;;;;;26.70;18.70;;;;;;;3.65;88.81;100043.48;88211;1274;81796;-70
2022/02/04 07:26:05;;;;;;;28.30;19.30;;;;;;;3.59;88.86;100041.58;88215;1274;96845;-69
2022/02/04 07:28:17;;;;;;;33.00;18.80;;;;;;;3.59;88.96;100043.91;88203;1273;88799;-64
2022/02/04 07:30:29;;;;;;;31.20;17.60;;;;;;;3.58;88.97;100040.08;88213;1274;95079;-66
2022/02/04 07:32:44;;;;;;;27.10;16.80;;;;;;;3.60;88.78;100040.61;88184;1274;78634;-63
2022/02/04 07:35:16;;;;;;;27.50;17.50;;;;;;;3.62;88.90;100040.97;88189;1275;82520;-64
2022/02/04 07:42:20;;;;;;;28.40;17.00;;;;;;;3.69;88.95;100039.36;88162;1274;95583;-63
2022/02/04 07:44:30;;;;;;;31.10;17.00;;;;;;;3.76;89.21;100036.48;88155;1274;81291;-63
2022/02/04 07:46:42;;;;;;;32.00;17.20;;;;;;;3.81;89.12;100036.60;88179;1274;82595;-63
2022/02/04 07:48:52;;;;;;;28.20;17.60;;;;;;;3.93;88.98;100037.02;88167;1275;98933;-63
2022/02/04 07:51:04;;;;;;;29.20;18.60;;;;;;;3.97;88.99;100041.54;88197;1275;88589;-71
2022/02/04 07:53:13;;;;;;;32.50;19.30;;;;;;;4.02;88.88;100047.27;88192;1274;95154;-70
2022/02/04 07:55:26;;;;;;;28.90;18.30;;;;;;;4.05;88.76;100044.69;88227;1274;77819;-69
2022/02/04 07:57:35;;;;;;;35.30;20.60;;;;;;;3.99;88.79;100046.17;88227;1274;79824;-64
2022/02/04 07:59:46;;;;;;;31.10;18.80;;;;;;;3.96;88.92;100047.73;88191;1275;99206;-63
2022/02/04 08:01:59;;;;;;;32.80;19.00;;;;;;;3.93;88.96;100046.30;88203;1274;87807;-63
2022/02/04 08:04:16;;;;;;;32.90;19.30;;;;;;;3.93;88.76;100046.28;88176;1274;95192;-66
2022/02/04 08:06:27;;;;;;;30.20;17.60;;;;;;;3.87;88.98;100046.16;88203;1274;81244;-63
2022/02/04 08:08:45;;;;;;;25.60;17.00;;;;;;;3.94;88.88;100044.80;88160;1274;82662;-64
2022/02/04 08:11:11;;;;;;;30.50;18.20;;;;;;;3.89;89.16;100045.77;88208;1274;97641;-63
2022/02/04 08:13:51;;;;;;;30.70;18.50;;;;;;;4.02;89.22;100042.56;88196;1274;89029;-63
2022/02/04 08:21:42;;;;;;;29.50;19.60;;;;;;;4.23;88.91;100040.02;85326;1312;601285;-68
2022/02/04 08:27:03;;;;;;;30.30;20.70;;;;;;;4.25;88.88;100040.27;87563;1284;82096;-63
2022/02/04 08:29:32;;;;;;;31.80;20.50;;;;;;;4.26;88.73;100038.80;87547;1284;98842;-65
2022/02/04 08:37:11;;;;;;;26.30;18.40;;;;;;;4.25;88.75;100033.11;87503;1285;80350;-69
2022/02/04 08:39:51;;;;;;;29.90;18.50;;;;;;;4.32;88.89;100033.02;87973;1279;80996;-72
2022/02/04 08:47:15;;;;;;;26.60;18.20;;;;;;;4.54;88.61;100021.95;87964;1279;95222;-64
2022/02/04 08:49:42;;;;;;;28.10;19.40;;;;;;;4.58;88.59;100020.23;88096;1276;82813;-65
2022/02/04 08:52:12;;;;;;;29.50;19.30;;;;;;;4.66;88.59;100022.10;88140;1276;80820;-69
2022/02/04 08:54:28;;;;;;;30.50;19.50;;;;;;;4.72;88.58;100023.52;88123;1276;97432;-67
2022/02/04 08:56:55;;;;;;;29.40;20.10;;;;;;;4.84;88.84;100026.59;88133;1276;88535;-69
2022/02/04 08:59:10;;;;;;;34.30;22.10;;;;;;;4.91;88.56;100024.80;88117;1276;93804;-69
2022/02/04 09:01:24;;;;;;;33.50;21.10;;;;;;;4.94;88.27;100024.62;88107;1276;80427;-64
2022/02/04 09:03:48;;;;;;;28.60;19.90;;;;;;;4.91;88.36;100026.92;88132;1274;80439;-65
2022/02/04 09:06:08;;;;;;;30.10;21.70;;;;;;;4.89;88.25;100019.11;88110;1276;97372;-69
2022/02/04 09:08:25;;;;;;;31.40;20.10;;;;;;;4.89;88.30;100021.75;88123;1276;86192;-68
2022/02/04 09:10:36;;;;;;;28.70;18.70;;;;;;;4.89;88.21;100027.48;88100;1276;93468;-65
2022/02/04 09:18:04;;;;;;;29.30;18.60;;;;;;;4.95;88.27;100024.71;88114;1276;97338;-63
2022/02/04 09:20:27;;;;;;;29.20;20.50;;;;;;;5.04;88.12;100019.84;88102;1276;87695;-65
2022/02/04 09:22:43;;;;;;;30.10;21.00;;;;;;;5.06;88.24;100016.02;88102;1277;95006;-64
2022/02/04 09:24:56;;;;;;;29.00;19.90;;;;;;;5.05;88.09;100015.01;88128;1276;79876;-64
2022/02/04 09:27:06;;;;;;;27.30;19.50;;;;;;;5.02;88.17;100014.27;88118;1276;81040;-68
2022/02/04 09:29:15;;;;;;;26.50;19.70;;;;;;;4.95;87.85;100011.00;88107;1276;97287;-69
2022/02/04 09:31:24;;;;;;;29.50;17.80;;;;;;;4.93;87.90;100007.28;88128;1276;87678;-62
2022/02/04 09:33:33;;;;;;;28.30;18.90;;;;;;;4.94;88.04;99999.64;88114;1276;93484;-62
2022/02/04 09:35:44;;;;;;;28.50;19.30;;;;;;;4.97;88.08;100000.60;88122;1276;79692;-63
2022/02/04 09:37:55;;;;;;;26.00;18.40;;;;;;;5.03;88.15;100003.84;88136;1276;80173;-63
2022/02/04 09:40:06;;;;;;;25.70;18.40;;;;;;;5.04;88.23;99999.79;88062;1277;97201;-64
2022/02/04 09:42:17;;;;;;;26.30;18.50;;;;;;;4.95;88.44;100002.01;88134;1276;89714;-63
2022/02/04 09:44:27;;;;;;;26.70;18.40;;;;;;;5.02;88.33;100001.60;88132;1276;94990;-63
2022/02/04 09:46:37;;;;;;;26.90;18.10;;;;;;;5.10;88.35;100000.06;88137;1276;80425;-70
2022/02/04 09:48:55;;;;;;;24.90;18.30;;;;;;;5.15;88.50;100000.52;88108;1276;83345;-67
2022/02/04 09:51:04;;;;;;;27.80;18.70;;;;;;;5.29;88.56;99995.85;88059;1277;97061;-62
2022/02/04 10:08:38;;;;;;;24.70;17.20;;;;;;;5.34;88.09;99994.54;88075;1276;94871;-63
2022/02/04 10:13:59;;;;;;;23.10;16.70;;;;;;;5.35;87.81;99999.45;87927;1279;82311;-63
2022/02/04 10:16:36;;;;;;;23.00;16.30;;;;;;;5.32;87.79;99993.91;88095;1276;97493;-68
2022/02/04 10:18:51;;;;;;;23.30;15.30;;;;;;;5.31;87.96;99989.57;88082;1276;89093;-68
2022/02/04 10:21:07;;;;;;;20.50;15.00;;;;;;;5.30;87.83;99987.11;88095;1277;94337;-67
2022/02/04 10:23:16;;;;;;;20.60;15.40;;;;;;;5.31;87.84;99987.89;88110;1276;81219;-67
2022/02/04 10:25:33;;;;;;;24.20;16.20;;;;;;;5.31;87.94;99978.58;88118;1276;80554;-63
2022/02/04 10:27:46;;;;;;;26.20;17.90;;;;;;;5.34;87.94;99973.16;88107;1276;96879;-63
2022/02/04 10:30:03;;;;;;;26.20;16.90;;;;;;;5.39;87.94;99967.38;88088;1276;89888;-62
2022/02/04 10:32:13;;;;;;;25.90;16.30;;;;;;;5.34;87.83;99969.20;88084;1276;93458;-62
2022/02/04 10:34:25;;;;;;;23.50;17.10;;;;;;;5.26;87.76;99976.70;88114;1276;81973;-64
2022/02/04 10:36:53;;;;;;;22.40;15.20;;;;;;;5.28;87.75;99976.44;88112;1276;82653;-62
2022/02/04 10:39:22;;;;;;;23.80;15.40;;;;;;;5.28;87.80;99981.27;88088;1276;97500;-64
2022/02/04 10:41:40;;;;;;;20.90;14.50;;;;;;;5.27;87.74;99980.82;88101;1276;88709;-66
2022/02/04 10:44:02;;;;;;;26.40;16.00;;;;;;;5.32;87.80;99976.73;88073;1276;93467;-68
2022/02/04 10:46:25;;;;;;;20.30;14.40;;;;;;;5.35;87.81;99971.02;88042;1277;80119;-68
2022/02/04 10:54:10;;;;;;;24.80;16.00;;;;;;;5.34;87.77;99967.74;87993;1280;89252;-67
2022/02/04 10:56:43;;;;;;;23.60;15.80;;;;;;;5.42;87.79;99969.45;88177;1276;95774;-67
2022/02/04 11:01:32;;;;;;;24.90;15.90;;;;;;;5.50;87.67;99957.96;88188;1274;82889;-67
2022/02/04 11:03:48;;;;;;;22.70;14.80;;;;;;;5.54;87.55;99956.33;88211;1273;97395;-68
2022/02/04 11:06:11;;;;;;;21.10;13.40;;;;;;;5.49;87.63;99950.20;88226;1273;89079;-65
2022/02/04 11:30:51;;;;;;;21.40;13.80;;;;;;;5.74;87.82;99947.06;88011;1277;95832;-66
2022/02/04 11:31:04;;;;;;;20.80;15.30;;;;;;;5.77;87.88;99939.92;88179;1274;97565;-68
2022/02/04 11:35:41;;;;;;;20.50;14.60;;;;;;;5.77;87.64;99938.91;88129;1273;94533;-68
2022/02/04 11:49:02;;;;;;;20.10;13.80;;;;;;;5.90;87.80;99930.86;88214;1273;94667;-64
2022/02/04 11:54:43;;;;;;;23.50;15.40;;;;;;;5.85;87.77;99926.90;87942;1279;80780;-66
2022/02/04 11:57:20;;;;;;;22.10;17.10;;;;;;;5.82;87.69;99923.38;87912;1281;98556;-65
2022/02/04 11:59:40;;;;;;;23.40;16.70;;;;;;;5.78;87.76;99921.98;87954;1279;89182;-65
2022/02/04 12:01:49;;;;;;;21.40;15.30;;;;;;;5.78;87.41;99923.27;87954;1279;94744;-66
2022/02/04 12:04:22;;;;;;;22.80;16.10;;;;;;;5.77;87.48;99919.66;87939;1279;81437;-67
2022/02/04 12:06:37;;;;;;;22.50;16.10;;;;;;;5.74;87.63;99918.36;88139;1274;83547;-70
2022/02/04 12:08:49;;;;;;;21.60;15.20;;;;;;;5.76;87.69;99917.78;88203;1274;98692;-65
2022/02/04 12:11:02;;;;;;;22.40;15.50;;;;;;;5.81;87.80;99919.21;88203;1274;88032;-65
2022/02/04 12:13:15;;;;;;;22.50;15.40;;;;;;;5.81;87.70;99915.43;88213;1274;93354;-67
2022/02/04 12:15:42;;;;;;;23.00;15.50;;;;;;;5.82;87.64;99917.02;88216;1274;79479;-68
2022/02/04 12:17:54;;;;;;;22.20;16.70;;;;;;;5.86;87.47;99915.23;88232;1274;82906;-67
2022/02/04 12:20:03;;;;;;;23.80;16.40;;;;;;;5.87;87.57;99915.85;88199;1274;98605;-73
2022/02/04 12:22:35;;;;;;;23.00;15.90;;;;;;;5.85;87.63;99914.63;88205;1274;88054;-66
2022/02/04 12:24:50;;;;;;;23.80;16.70;;;;;;;5.80;87.43;99910.64;88084;1276;95740;-68
2022/02/04 12:27:48;;;;;;;23.90;15.10;;;;;;;5.80;87.61;99911.11;88197;1274;79947;-67
2022/02/04 12:30:21;;;;;;;23.30;16.30;;;;;;;5.83;87.62;99909.60;88233;1274;82861;-69
2022/02/04 12:32:39;;;;;;;22.50;15.90;;;;;;;5.84;87.65;99908.48;88242;1274;98902;-65
2022/02/04 12:34:53;;;;;;;24.40;16.10;;;;;;;5.83;87.65;99903.77;88234;1274;86512;-64
2022/02/04 12:37:05;;;;;;;23.00;15.50;;;;;;;5.87;87.67;99902.95;88209;1274;95004;-67
2022/02/04 12:39:22;;;;;;;23.80;16.20;;;;;;;5.90;87.61;99903.91;88143;1276;81979;-64
2022/02/04 12:41:36;;;;;;;27.20;16.80;;;;;;;5.91;87.86;99900.59;88226;1274;80212;-63
2022/02/04 12:43:50;;;;;;;26.40;16.80;;;;;;;5.92;87.85;99899.36;88191;1274;98429;-65
2022/02/04 12:46:02;;;;;;;18.50;13.60;;;;;;;5.90;87.64;99897.39;88170;1276;88169;-64
2022/02/04 12:48:12;;;;;;;23.70;17.50;;;;;;;5.91;87.65;99898.43;88223;1274;94396;-64
2022/02/04 12:50:28;;;;;;;25.00;17.90;;;;;;;5.88;87.66;99895.90;88169;1274;80245;-64
2022/02/04 12:52:46;;;;;;;26.80;18.70;;;;;;;5.80;87.76;99893.89;88205;1274;83154;-68
2022/02/04 12:55:06;;;;;;;29.90;19.80;;;;;;;5.75;87.65;99896.45;88199;1274;98146;-69
2022/02/04 12:57:32;;;;;;;23.80;17.90;;;;;;;5.70;87.55;99896.12;88203;1272;87801;-67
2022/02/04 12:59:54;;;;;;;28.90;18.40;;;;;;;5.69;87.54;99895.35;88187;1274;95576;-68
2022/02/04 13:02:18;;;;;;;27.90;18.20;;;;;;;5.59;87.82;99890.71;88187;1274;81095;-68
2022/02/04 13:12:18;;;;;;;27.80;18.90;;;;;;;5.69;87.83;99882.29;88160;1274;92202;-68
2022/02/04 13:14:32;;;;;;;27.40;18.20;;;;;;;5.71;87.90;99877.76;88187;1274;81277;-64
2022/02/04 13:16:44;;;;;;;27.10;18.60;;;;;;;5.65;87.97;99876.30;88209;1274;82728;-64
2022/02/04 13:18:55;;;;;;;28.50;18.40;;;;;;;5.71;88.13;99876.36;88191;1274;98479;-69
2022/02/04 13:21:04;;;;;;;29.40;19.80;;;;;;;5.72;87.94;99876.59;88198;1274;89397;-68
2022/02/04 13:23:21;;;;;;;28.00;18.30;;;;;;;5.71;87.81;99878.09;88203;1274;93293;-70
2022/02/04 13:25:36;;;;;;;28.90;20.20;;;;;;;5.72;87.73;99870.66;88221;1274;80264;-69
2022/02/04 13:28:08;;;;;;;31.50;19.90;;;;;;;5.64;88.02;99868.00;88197;1274;79566;-64
2022/02/04 13:30:28;;;;;;;26.20;18.80;;;;;;;5.64;87.94;99867.50;88214;1274;97460;-63
2022/02/04 13:32:45;;;;;;;28.70;19.00;;;;;;;5.63;87.83;99866.66;88210;1274;89192;-63
2022/02/04 13:34:54;;;;;;;24.90;18.20;;;;;;;5.61;87.77;99865.67;88188;1274;94844;-65
2022/02/04 13:37:13;;;;;;;29.80;18.50;;;;;;;5.63;87.97;99861.30;88187;1274;82622;-65
2022/02/04 13:39:31;;;;;;;26.80;17.80;;;;;;;5.60;87.98;99860.48;88171;1274;82835;-64
2022/02/04 13:41:56;;;;;;;26.70;17.30;;;;;;;5.62;87.91;99861.15;88178;1274;99047;-64
2022/02/04 13:44:32;;;;;;;25.70;17.80;;;;;;;5.63;87.87;99863.17;88204;1274;88649;-64
2022/02/04 13:46:47;;;;;;;25.70;17.30;;;;;;;5.55;88.23;99863.19;88204;1274;95833;-63
2022/02/04 13:49:06;;;;;;;28.40;18.60;;;;;;;5.54;88.33;99860.34;88188;1274;79471;-72
2022/02/04 13:51:24;;;;;;;26.60;19.00;;;;;;;5.60;88.21;99862.88;88196;1273;81771;-71
2022/02/04 13:53:38;;;;;;;32.00;19.30;;;;;;;5.59;88.08;99865.36;88195;1274;98304;-62
2022/02/04 13:56:09;;;;;;;;;;;;;;;5.61;88.23;99863.14;88226;1274;87997;-64
2022/02/04 13:58:35;;;;;;;28.30;17.50;;;;;;;5.65;88.22;99862.54;88227;1274;96098;-70
2022/02/04 14:00:55;;;;;;;30.70;19.60;;;;;;;5.64;88.20;99862.61;88181;1274;80374;-70
2022/02/04 14:03:17;;;;;;;30.20;18.90;;;;;;;5.61;87.99;99863.52;88243;1274;80956;-70
2022/02/04 14:05:40;;;;;;;29.00;18.70;;;;;;;5.54;88.08;99867.38;88205;1274;97901;-70
2022/02/04 14:07:53;;;;;;;27.90;17.60;;;;;;;5.42;88.24;99862.44;88204;1274;89569;-70
2022/02/04 14:10:14;;;;;;;25.70;18.00;;;;;;;5.42;88.15;99864.25;88206;1274;94381;-67
2022/02/04 14:12:23;;;;;;;28.60;17.50;;;;;;;5.42;88.16;99859.42;88203;1274;80303;-64
2022/02/04 14:14:32;;;;;;;48.90;34.30;;;;;;;5.42;88.12;99856.55;88200;1274;82654;-65
2022/02/04 14:16:56;;;;;;;35.70;22.70;;;;;;;5.37;88.34;99853.67;88168;1274;98617;-66
2022/02/04 14:19:08;;;;;;;30.50;20.00;;;;;;;5.38;88.32;99855.91;88248;1274;89200;-62